Wenden, Arizona
Current Conditions -  °F | °C
As of 2:15 AM on Monday 20 Oct 2014 (Local Time) from KBXK Reporting Station
Clear Clear  
Wind Chill: 72°   Ceiling: Unl
Heat Index: 72°   Visibility: 10mi
Dew Point: 48°   Wind: 9mph
Humidity: 43%   Direction: 60°ENE
Pressure: 29.87"   Gusts: NA
Location:  33.82°N, 113.54°W
Report Text: KBXK 200915Z AUTO 06008KT 10SM CLR 22/09 A2987 RMK AO1
Loading
Personal Weather Stations






























Interactive Weather Map New forecast layout! Learn more

10-Day Weather Forecast

Advertisements
Track Severe Weather on mobile